createdAt,value
2023-04-27T00:02:22.282Z,8.18
2023-04-27T00:04:51.010Z,8.00
2023-04-27T00:07:18.965Z,6.97
2023-04-27T00:09:47.124Z,7.40
2023-04-27T00:12:14.714Z,6.82
2023-04-27T00:14:43.618Z,7.78
2023-04-27T00:17:11.297Z,7.97
2023-04-27T00:19:39.590Z,8.65
2023-04-27T00:22:07.481Z,8.02
2023-04-27T00:24:35.540Z,8.50
2023-04-27T00:27:03.672Z,9.45
2023-04-27T00:29:31.363Z,9.35
2023-04-27T00:32:02.061Z,9.05
2023-04-27T00:34:29.708Z,7.40
2023-04-27T00:36:58.444Z,8.00
2023-04-27T00:39:26.180Z,7.20
2023-04-27T00:41:54.968Z,8.45
2023-04-27T00:44:26.117Z,6.55
2023-04-27T00:46:54.265Z,7.87
2023-04-27T00:49:24.571Z,9.70
2023-04-27T00:51:52.519Z,7.05
2023-04-27T00:54:23.879Z,6.55
2023-04-27T00:56:52.857Z,7.72
2023-04-27T00:59:21.717Z,7.95
2023-04-27T01:01:50.917Z,8.30
2023-04-27T01:04:21.024Z,7.50
2023-04-27T01:06:50.208Z,9.05
2023-04-27T01:09:19.743Z,9.13
2023-04-27T01:11:50.703Z,8.43
2023-04-27T01:14:18.530Z,9.05
2023-04-27T01:16:47.476Z,8.50
2023-04-27T01:19:15.464Z,9.48
2023-04-27T01:21:44.119Z,8.25
2023-04-27T01:24:13.028Z,9.43
2023-04-27T01:26:40.795Z,8.98
2023-04-27T01:29:11.261Z,8.35
2023-04-27T01:31:39.889Z,10.23
2023-04-27T01:34:08.526Z,9.50
2023-04-27T01:36:37.006Z,10.38
2023-04-27T01:39:09.954Z,7.25
2023-04-27T01:41:39.792Z,10.30
2023-04-27T01:44:08.958Z,12.75
2023-04-27T01:46:38.108Z,8.65
2023-04-27T01:49:07.436Z,9.40
2023-04-27T01:51:35.961Z,7.50
2023-04-27T01:54:03.566Z,9.18
2023-04-27T01:56:31.244Z,9.18
2023-04-27T01:59:00.201Z,6.45
2023-04-27T02:01:28.976Z,9.02
2023-04-27T02:03:56.724Z,8.10
2023-04-27T02:06:28.657Z,7.70
2023-04-27T02:11:23.887Z,8.52
2023-04-27T02:13:51.731Z,7.95
2023-04-27T02:16:21.673Z,7.85
2023-04-27T02:18:49.439Z,8.15
2023-04-27T02:21:17.394Z,9.25
2023-04-27T02:23:45.127Z,9.50
2023-04-27T02:26:17.732Z,9.57
2023-04-27T02:28:45.971Z,8.95
2023-04-27T02:31:13.889Z,9.13
2023-04-27T02:33:43.105Z,9.52
2023-04-27T02:36:11.525Z,8.20
2023-04-27T02:38:39.074Z,9.35
2023-04-27T02:41:07.128Z,9.35
2023-04-27T02:43:36.084Z,12.38
2023-04-27T02:46:07.684Z,10.65
2023-04-27T02:48:35.331Z,10.05
2023-04-27T02:51:07.928Z,8.70
2023-04-27T02:53:36.284Z,7.40
2023-04-27T02:56:04.076Z,8.52
2023-04-27T02:58:31.813Z,8.60
2023-04-27T03:00:59.530Z,10.02
2023-04-27T03:03:27.649Z,11.02
2023-04-27T03:05:56.038Z,9.68
2023-04-27T03:08:25.787Z,10.48
2023-04-27T03:10:56.046Z,8.65
2023-04-27T03:13:24.632Z,9.38
2023-04-27T03:15:52.172Z,10.88
2023-04-27T03:18:21.115Z,11.48
2023-04-27T03:20:50.052Z,9.35
2023-04-27T03:23:19.492Z,10.32
2023-04-27T03:25:49.163Z,9.80
2023-04-27T03:28:16.860Z,10.55
2023-04-27T03:30:44.602Z,9.15
2023-04-27T03:33:12.372Z,8.65
2023-04-27T03:35:41.952Z,11.05
2023-04-27T03:38:10.045Z,9.20
2023-04-27T03:40:38.963Z,9.10
2023-04-27T03:43:08.046Z,10.25
2023-04-27T03:45:36.031Z,7.68
2023-04-27T03:48:04.161Z,9.95
2023-04-27T03:50:33.000Z,10.85
2023-04-27T03:53:02.044Z,10.30
2023-04-27T03:55:32.940Z,9.93
2023-04-27T03:58:00.963Z,8.85
2023-04-27T04:00:30.074Z,10.25
2023-04-27T04:02:57.773Z,11.63
2023-04-27T04:05:30.474Z,9.80
2023-04-27T04:08:00.000Z,10.93
2023-04-27T04:10:28.831Z,10.30
2023-04-27T04:12:56.439Z,9.57
2023-04-27T04:15:24.100Z,9.52
2023-04-27T04:17:55.086Z,10.98
2023-04-27T04:20:22.944Z,11.13
2023-04-27T04:22:51.244Z,10.75
2023-04-27T04:25:20.671Z,8.93
2023-04-27T04:27:49.031Z,9.65
2023-04-27T04:30:17.978Z,8.23
2023-04-27T04:32:46.073Z,10.68
2023-04-27T04:35:17.701Z,11.82
2023-04-27T04:37:45.524Z,9.57
2023-04-27T04:40:14.155Z,13.02
2023-04-27T04:42:43.069Z,11.00
2023-04-27T04:45:12.071Z,10.70
2023-04-27T04:47:40.014Z,9.88
2023-04-27T04:50:09.285Z,9.93
2023-04-27T04:52:38.613Z,11.13
2023-04-27T04:55:07.431Z,10.10
2023-04-27T05:00:29.963Z,10.77
2023-04-27T05:02:58.802Z,11.52
2023-04-27T05:05:26.463Z,11.30
2023-04-27T05:07:55.979Z,10.02
2023-04-27T05:10:23.547Z,11.50
2023-04-27T05:12:51.148Z,10.68
2023-04-27T05:15:18.985Z,11.48
2023-04-27T05:17:46.745Z,12.10
2023-04-27T05:20:14.450Z,16.02
2023-04-27T05:22:42.019Z,11.85
2023-04-27T05:25:12.198Z,10.60
2023-04-27T05:27:41.006Z,12.65
2023-04-27T05:30:09.953Z,10.68
2023-04-27T05:32:37.807Z,14.38
2023-04-27T05:35:06.969Z,13.00
2023-04-27T05:38:04.718Z,12.48
2023-04-27T05:43:05.246Z,13.15
2023-04-27T05:48:03.390Z,13.32
2023-04-27T05:50:31.591Z,13.60
2023-04-27T05:52:59.448Z,15.70
2023-04-27T05:55:54.109Z,14.23
2023-04-27T05:58:25.617Z,16.25
2023-04-27T06:00:54.962Z,15.23
2023-04-27T06:03:23.652Z,17.55
2023-04-27T06:05:57.422Z,18.33
2023-04-27T06:08:27.071Z,17.80
2023-04-27T06:10:56.414Z,15.50
2023-04-27T06:13:26.402Z,13.70
2023-04-27T06:16:19.410Z,10.48
2023-04-27T06:18:47.846Z,11.25
2023-04-27T06:21:17.369Z,10.77
2023-04-27T06:23:46.120Z,11.25
2023-04-27T06:26:15.367Z,9.75
2023-04-27T06:28:42.939Z,8.07
2023-04-27T06:31:10.968Z,9.60
2023-04-27T06:33:39.084Z,9.77
2023-04-27T06:36:07.114Z,11.68
2023-04-27T06:38:36.943Z,11.00
2023-04-27T06:41:04.979Z,14.20
2023-04-27T06:43:34.108Z,21.40
2023-04-27T06:46:03.547Z,22.90
2023-04-27T06:48:32.073Z,12.98
2023-04-27T06:51:03.949Z,8.40
2023-04-27T06:53:32.368Z,7.55
2023-04-27T06:56:00.142Z,7.25
2023-04-27T06:58:28.162Z,7.72
2023-04-27T07:01:03.029Z,7.13
2023-04-27T07:03:32.386Z,5.55
2023-04-27T07:06:01.974Z,8.27
2023-04-27T07:08:29.726Z,6.05
2023-04-27T07:10:57.281Z,6.40
2023-04-27T07:13:25.460Z,5.53
2023-04-27T07:15:58.633Z,8.57
2023-04-27T07:18:28.052Z,7.35
2023-04-27T07:20:55.725Z,5.90
2023-04-27T07:23:23.683Z,5.90
2023-04-27T07:25:51.849Z,6.32
2023-04-27T07:28:19.483Z,5.72
2023-04-27T07:30:49.177Z,5.43
2023-04-27T07:33:19.078Z,4.80
2023-04-27T07:35:49.951Z,5.13
2023-04-27T07:38:18.387Z,5.18
2023-04-27T07:40:46.575Z,4.63
2023-04-27T07:43:15.544Z,4.45
2023-04-27T07:45:43.993Z,5.07
2023-04-27T07:48:12.747Z,4.20
2023-04-27T07:50:41.958Z,4.35
2023-04-27T07:53:11.253Z,4.38
2023-04-27T07:55:39.016Z,4.85
2023-04-27T07:58:08.982Z,5.38
2023-04-27T08:00:37.968Z,6.95
2023-04-27T08:03:10.151Z,15.23
2023-04-27T08:05:38.423Z,6.82
2023-04-27T08:08:08.179Z,4.63
2023-04-27T08:10:38.969Z,4.15
2023-04-27T08:13:09.757Z,4.30
2023-04-27T08:15:37.467Z,5.80
2023-04-27T08:18:06.044Z,4.75
2023-04-27T08:20:33.649Z,4.10
2023-04-27T08:23:01.958Z,5.68
2023-04-27T08:25:30.912Z,5.13
2023-04-27T08:28:01.131Z,3.38
2023-04-27T08:30:29.616Z,4.32
2023-04-27T08:32:57.509Z,5.57
2023-04-27T08:35:25.261Z,3.20
2023-04-27T08:37:54.148Z,4.10
2023-04-27T08:40:25.341Z,5.03
2023-04-27T08:42:59.348Z,5.57
2023-04-27T08:45:28.954Z,3.70
2023-04-27T08:47:56.983Z,16.45
2023-04-27T08:50:26.416Z,7.97
2023-04-27T08:52:53.999Z,12.85
2023-04-27T08:55:21.735Z,6.63
2023-04-27T08:58:01.342Z,3.80
2023-04-27T09:00:41.488Z,3.85
2023-04-27T09:03:12.092Z,3.78
2023-04-27T09:06:00.583Z,5.28
2023-04-27T09:08:44.068Z,5.97
2023-04-27T09:11:12.989Z,4.97
2023-04-27T09:13:45.925Z,4.55
2023-04-27T09:16:15.014Z,4.00
2023-04-27T09:18:44.977Z,4.18
2023-04-27T09:21:23.194Z,6.15
2023-04-27T09:23:52.083Z,3.80
2023-04-27T09:26:22.574Z,4.78
2023-04-27T09:28:53.509Z,4.35
2023-04-27T09:31:22.649Z,4.78
2023-04-27T09:33:56.506Z,4.03
2023-04-27T09:36:25.685Z,5.55
2023-04-27T09:38:54.320Z,4.03
2023-04-27T09:41:22.860Z,3.78
2023-04-27T09:43:57.800Z,5.03
2023-04-27T09:46:29.100Z,4.38
2023-04-27T09:48:58.083Z,3.75
2023-04-27T09:51:26.056Z,5.72
2023-04-27T09:53:58.147Z,3.33
2023-04-27T09:56:39.458Z,3.38
2023-04-27T09:59:25.244Z,3.88
2023-04-27T10:01:57.825Z,5.65
2023-04-27T10:04:47.140Z,4.25
2023-04-27T10:07:16.409Z,4.95
2023-04-27T10:09:46.273Z,4.10
2023-04-27T10:12:19.985Z,5.00
2023-04-27T10:14:54.060Z,4.10
2023-04-27T10:17:26.450Z,4.55
2023-04-27T10:19:57.826Z,6.05
2023-04-27T10:22:38.039Z,4.22
2023-04-27T10:25:17.451Z,6.47
2023-04-27T10:27:51.974Z,4.20
2023-04-27T10:30:22.778Z,4.05
2023-04-27T10:32:55.044Z,6.03
2023-04-27T10:35:24.088Z,5.35
2023-04-27T10:37:53.001Z,4.20
2023-04-27T10:40:21.495Z,5.15
2023-04-27T10:42:49.812Z,6.63
2023-04-27T10:45:31.918Z,4.85
2023-04-27T10:48:02.344Z,5.45
2023-04-27T10:50:31.908Z,4.43
2023-04-27T10:53:02.673Z,5.32
2023-04-27T10:55:32.020Z,4.55
2023-04-27T10:58:01.384Z,4.65
2023-04-27T11:00:34.985Z,4.18
2023-04-27T11:03:13.223Z,5.80
2023-04-27T11:05:42.735Z,6.90
2023-04-27T11:08:14.048Z,9.10
2023-04-27T11:10:47.237Z,7.72
2023-04-27T11:13:17.970Z,5.95
2023-04-27T11:15:48.730Z,5.30
2023-04-27T11:18:18.006Z,5.40
2023-04-27T11:20:47.857Z,6.32
2023-04-27T11:23:26.976Z,4.47
2023-04-27T11:25:55.018Z,5.38
2023-04-27T11:28:25.977Z,4.35
2023-04-27T11:30:59.066Z,4.03
2023-04-27T11:33:26.909Z,4.70
2023-04-27T11:35:55.104Z,5.32
2023-04-27T11:38:23.659Z,4.72
2023-04-27T11:41:01.228Z,5.25
2023-04-27T11:43:30.074Z,5.78
2023-04-27T11:46:03.375Z,5.85
2023-04-27T11:48:31.389Z,5.18
2023-04-27T11:51:01.455Z,4.88
2023-04-27T11:53:33.781Z,4.72
2023-04-27T11:56:05.032Z,4.60
2023-04-27T11:58:35.975Z,4.90
2023-04-27T12:01:05.344Z,6.03
2023-04-27T12:03:35.597Z,5.10
2023-04-27T12:06:21.298Z,4.50
2023-04-27T12:08:51.493Z,6.55
2023-04-27T12:11:19.198Z,3.75
2023-04-27T12:13:48.177Z,7.03
2023-04-27T12:16:17.192Z,8.50
2023-04-27T12:18:44.934Z,4.72
2023-04-27T12:21:13.156Z,5.32
2023-04-27T12:23:40.888Z,5.00
2023-04-27T12:26:08.509Z,5.53
2023-04-27T12:28:37.985Z,5.45
2023-04-27T12:31:08.150Z,4.22
2023-04-27T12:33:37.861Z,6.70
2023-04-27T12:36:05.757Z,6.70
2023-04-27T12:38:33.599Z,5.22
2023-04-27T12:41:03.201Z,5.10
2023-04-27T12:43:31.056Z,5.75
2023-04-27T12:45:59.221Z,5.72
2023-04-27T12:48:27.168Z,4.35
2023-04-27T12:50:56.129Z,5.38
2023-04-27T12:53:23.994Z,5.72
2023-04-27T12:55:53.412Z,6.85
2023-04-27T12:58:21.915Z,5.68
2023-04-27T13:00:49.482Z,6.40
2023-04-27T13:03:17.341Z,6.82
2023-04-27T13:05:45.603Z,6.07
2023-04-27T13:08:14.829Z,7.35
2023-04-27T13:10:42.654Z,5.50
2023-04-27T13:13:10.296Z,5.05
2023-04-27T13:15:38.590Z,5.82
2023-04-27T13:18:10.276Z,6.32
2023-04-27T13:20:38.377Z,5.50
2023-04-27T13:23:06.623Z,4.82
2023-04-27T13:25:35.931Z,6.32
2023-04-27T13:28:04.058Z,5.43
2023-04-27T13:30:36.029Z,6.63
2023-04-27T13:33:18.515Z,4.53
2023-04-27T13:35:51.497Z,5.00
2023-04-27T13:38:19.068Z,5.20
2023-04-27T13:40:49.759Z,6.13
2023-04-27T13:43:17.408Z,4.25
2023-04-27T13:45:45.296Z,4.93
2023-04-27T13:48:13.709Z,8.02
2023-04-27T13:50:41.570Z,5.43
2023-04-27T13:53:09.389Z,7.43
2023-04-27T13:55:37.295Z,6.55
2023-04-27T13:58:06.264Z,4.63
2023-04-27T14:00:34.636Z,6.03
2023-04-27T14:03:04.354Z,5.18
2023-04-27T14:05:33.053Z,6.10
2023-04-27T14:08:01.632Z,4.68
2023-04-27T14:10:29.483Z,6.55
2023-04-27T14:12:58.271Z,5.75
2023-04-27T14:15:28.066Z,4.60
2023-04-27T14:17:56.109Z,4.65
2023-04-27T14:20:24.536Z,5.60
2023-04-27T14:22:56.664Z,4.43
2023-04-27T14:25:27.149Z,5.45
2023-04-27T14:27:54.787Z,5.00
2023-04-27T14:30:22.802Z,5.72
2023-04-27T14:32:51.809Z,6.05
2023-04-27T14:35:20.974Z,5.35
2023-04-27T14:37:48.713Z,6.15
2023-04-27T14:40:16.417Z,5.50
2023-04-27T14:42:44.329Z,5.25
2023-04-27T14:45:12.587Z,7.07
2023-04-27T14:47:41.049Z,7.45
2023-04-27T14:50:11.509Z,6.60
2023-04-27T14:52:39.425Z,9.98
2023-04-27T14:55:09.009Z,7.07
2023-04-27T14:57:37.582Z,6.93
2023-04-27T15:00:10.040Z,5.78
2023-04-27T15:02:39.524Z,5.38
2023-04-27T15:05:07.953Z,7.25
2023-04-27T15:07:37.077Z,7.60
2023-04-27T15:10:05.097Z,5.93
2023-04-27T15:12:32.831Z,6.10
2023-04-27T15:15:00.677Z,5.88
2023-04-27T15:17:29.500Z,6.22
2023-04-27T15:19:58.983Z,6.25
2023-04-27T15:22:27.698Z,5.25
2023-04-27T15:24:57.091Z,4.93
2023-04-27T15:27:26.254Z,5.53
2023-04-27T15:29:55.219Z,6.40
2023-04-27T15:32:23.227Z,5.22
2023-04-27T15:34:51.752Z,5.10
2023-04-27T15:37:19.799Z,5.53
2023-04-27T15:39:48.020Z,5.70
2023-04-27T15:42:17.923Z,5.47
2023-04-27T15:44:46.420Z,6.38
2023-04-27T15:47:15.256Z,7.05
2023-04-27T15:49:54.041Z,5.10
2023-04-27T15:52:25.590Z,5.13
2023-04-27T15:54:54.164Z,5.68
2023-04-27T15:57:24.119Z,6.07
2023-04-27T15:59:51.682Z,6.18
2023-04-27T16:02:20.105Z,5.18
2023-04-27T16:04:49.113Z,5.20
2023-04-27T16:07:16.899Z,5.32
2023-04-27T16:09:44.477Z,8.57
2023-04-27T16:12:13.096Z,5.88
2023-04-27T16:14:42.973Z,6.07
2023-04-27T16:17:11.559Z,5.00
2023-04-27T16:19:39.148Z,7.45
2023-04-27T16:22:08.443Z,5.93
2023-04-27T16:24:38.034Z,13.48
2023-04-27T16:27:07.051Z,12.27
2023-04-27T16:29:35.180Z,5.32
2023-04-27T16:32:04.408Z,5.75
2023-04-27T16:34:32.374Z,5.63
2023-04-27T16:37:00.019Z,6.05
2023-04-27T16:39:29.101Z,5.85
2023-04-27T16:41:56.687Z,4.50
2023-04-27T16:44:24.344Z,6.07
2023-04-27T16:46:52.569Z,5.50
2023-04-27T16:49:21.606Z,6.13
2023-04-27T16:51:49.205Z,6.18
2023-04-27T16:54:16.890Z,6.38
2023-04-27T16:56:45.689Z,6.65
2023-04-27T16:59:15.244Z,7.25
2023-04-27T17:01:43.313Z,6.03
2023-04-27T17:04:12.006Z,6.75
2023-04-27T17:06:41.988Z,7.13
2023-04-27T17:09:10.769Z,30.42
2023-04-27T17:11:38.373Z,7.18
2023-04-27T17:14:05.920Z,8.50
2023-04-27T17:16:33.548Z,5.80
2023-04-27T17:19:01.426Z,6.32
2023-04-27T17:21:29.038Z,6.63
2023-04-27T17:23:57.933Z,6.43
2023-04-27T17:26:25.975Z,7.43
2023-04-27T17:28:59.680Z,6.30
2023-04-27T17:31:27.364Z,8.00
2023-04-27T17:33:55.012Z,7.28
2023-04-27T17:36:22.612Z,6.07
2023-04-27T17:38:50.292Z,6.25
2023-04-27T17:41:19.253Z,7.30
2023-04-27T17:43:47.667Z,6.07
2023-04-27T17:46:16.052Z,5.40
2023-04-27T17:48:44.214Z,7.22
2023-04-27T17:51:13.448Z,7.47
2023-04-27T17:53:41.091Z,5.75
2023-04-27T17:56:09.028Z,7.10
2023-04-27T17:58:38.590Z,5.60
2023-04-27T18:01:08.949Z,6.15
2023-04-27T18:03:37.292Z,6.50
2023-04-27T18:06:05.011Z,5.88
2023-04-27T18:08:32.753Z,6.07
2023-04-27T18:11:00.426Z,4.93
2023-04-27T18:13:28.540Z,8.18
2023-04-27T18:15:58.493Z,7.03
2023-04-27T18:18:26.805Z,7.15
2023-04-27T18:20:54.553Z,8.85
2023-04-27T18:23:23.904Z,6.13
2023-04-27T18:25:51.491Z,6.93
2023-04-27T18:28:19.244Z,6.22
2023-04-27T18:30:46.862Z,6.60
2023-04-27T18:33:17.690Z,5.72
2023-04-27T18:35:46.038Z,6.35
2023-04-27T18:38:14.121Z,6.47
2023-04-27T18:40:42.026Z,6.40
2023-04-27T18:43:11.194Z,6.90
2023-04-27T18:45:39.030Z,8.18
2023-04-27T18:48:06.775Z,6.57
2023-04-27T18:50:36.025Z,7.05
2023-04-27T18:53:05.281Z,7.30
2023-04-27T18:55:32.860Z,6.55
2023-04-27T18:58:00.826Z,6.47
2023-04-27T19:00:30.683Z,6.68
2023-04-27T19:02:58.533Z,6.78
2023-04-27T19:05:27.158Z,5.63
2023-04-27T19:07:56.178Z,6.78
2023-04-27T19:10:24.597Z,6.20
2023-04-27T19:12:52.940Z,7.72
2023-04-27T19:15:21.260Z,7.43
2023-04-27T19:17:52.770Z,11.57
2023-04-27T19:20:29.822Z,7.85
2023-04-27T19:22:58.731Z,6.28
2023-04-27T19:25:26.671Z,6.38
2023-04-27T19:27:54.579Z,7.93
2023-04-27T19:30:24.109Z,9.57
2023-04-27T19:32:52.104Z,10.45
2023-04-27T19:35:20.346Z,8.13
2023-04-27T19:37:48.117Z,8.52
2023-04-27T19:40:17.989Z,7.78
2023-04-27T19:42:46.115Z,6.75
2023-04-27T19:45:13.938Z,9.10
2023-04-27T19:47:41.951Z,7.13
2023-04-27T19:50:11.013Z,7.68
2023-04-27T19:52:40.642Z,7.53
2023-04-27T19:55:09.031Z,7.85
2023-04-27T19:57:38.010Z,7.47
2023-04-27T20:00:10.019Z,6.95
2023-04-27T20:02:41.960Z,7.57
2023-04-27T20:05:10.502Z,7.82
2023-04-27T20:07:38.517Z,6.13
2023-04-27T20:10:07.457Z,6.75
2023-04-27T20:15:09.257Z,9.32
2023-04-27T20:17:37.622Z,8.45
2023-04-27T20:20:09.969Z,6.07
2023-04-27T20:22:37.793Z,7.20
2023-04-27T20:25:07.714Z,7.47
2023-04-27T20:27:36.045Z,6.32
2023-04-27T20:30:04.608Z,6.78
2023-04-27T20:32:33.580Z,7.75
2023-04-27T20:35:02.450Z,6.07
2023-04-27T20:37:32.077Z,7.13
2023-04-27T20:40:00.796Z,7.55
2023-04-27T20:42:29.468Z,6.78
2023-04-27T20:44:57.529Z,8.80
2023-04-27T20:47:27.038Z,7.20
2023-04-27T20:49:56.794Z,6.28
2023-04-27T20:52:24.408Z,7.20
2023-04-27T20:54:52.003Z,6.40
2023-04-27T20:57:19.548Z,5.97
2023-04-27T20:59:48.528Z,8.27
2023-04-27T21:02:17.573Z,6.78
2023-04-27T21:04:45.800Z,6.53
2023-04-27T21:07:14.758Z,6.82
2023-04-27T21:09:42.433Z,5.38
2023-04-27T21:12:10.146Z,6.18
2023-04-27T21:14:37.834Z,9.57
2023-04-27T21:17:05.740Z,6.20
2023-04-27T21:19:34.464Z,7.60
2023-04-27T21:22:02.268Z,8.73
2023-04-27T21:24:31.236Z,7.75
2023-04-27T21:26:58.883Z,6.57
2023-04-27T21:29:27.762Z,5.97
2023-04-27T21:31:56.054Z,6.22
2023-04-27T21:34:23.668Z,6.70
2023-04-27T21:36:51.242Z,5.72
2023-04-27T21:39:18.943Z,6.78
2023-04-27T21:41:52.266Z,6.45
2023-04-27T21:44:19.928Z,4.93
2023-04-27T21:46:50.070Z,6.03
2023-04-27T21:49:17.986Z,6.68
2023-04-27T21:51:45.761Z,6.57
2023-04-27T21:54:13.997Z,8.07
2023-04-27T21:56:42.542Z,5.85
2023-04-27T21:59:11.492Z,6.47
2023-04-27T22:01:39.167Z,6.65
2023-04-27T22:04:24.425Z,7.53
2023-04-27T22:07:01.425Z,5.38
2023-04-27T22:09:29.159Z,5.38
2023-04-27T22:11:57.630Z,5.93
2023-04-27T22:14:26.551Z,9.85
2023-04-27T22:16:54.121Z,5.70
2023-04-27T22:19:21.924Z,5.40
2023-04-27T22:21:49.410Z,6.70
2023-04-27T22:24:17.338Z,6.10
2023-04-27T22:26:45.099Z,6.35
2023-04-27T22:29:12.962Z,6.97
2023-04-27T22:31:42.424Z,8.43
2023-04-27T22:34:11.037Z,6.00
2023-04-27T22:36:38.905Z,6.82
2023-04-27T22:39:07.085Z,5.28
2023-04-27T22:41:35.025Z,6.05
2023-04-27T22:44:02.600Z,5.40
2023-04-27T22:46:30.445Z,5.97
2023-04-27T22:49:01.331Z,5.93
2023-04-27T22:51:28.897Z,6.50
2023-04-27T22:53:56.457Z,6.68
2023-04-27T22:56:24.024Z,6.13
2023-04-27T22:58:51.989Z,5.22
2023-04-27T23:01:19.649Z,7.05
2023-04-27T23:03:47.476Z,5.25
2023-04-27T23:06:17.778Z,4.78
2023-04-27T23:08:46.918Z,6.63
2023-04-27T23:11:15.365Z,8.05
2023-04-27T23:13:44.669Z,5.78
2023-04-27T23:16:16.088Z,7.97
2023-04-27T23:18:43.747Z,6.40
2023-04-27T23:21:11.719Z,7.05
2023-04-27T23:23:40.797Z,5.75
2023-04-27T23:26:14.080Z,5.53
2023-04-27T23:28:42.326Z,6.40
2023-04-27T23:31:10.687Z,6.05
2023-04-27T23:33:39.386Z,6.15
2023-04-27T23:36:08.336Z,6.57
2023-04-27T23:38:36.108Z,6.88
2023-04-27T23:41:05.610Z,7.47
2023-04-27T23:43:34.778Z,6.80
2023-04-27T23:46:03.070Z,6.13
2023-04-27T23:48:30.700Z,6.45
2023-04-27T23:51:01.920Z,5.30
2023-04-27T23:53:29.991Z,6.18
2023-04-27T23:55:58.537Z,5.53
2023-04-27T23:58:29.247Z,5.97
